Aérodrome :
LOGIN :

S'inscrire | Disclaimer

   EN    FR    IT 

 










Légende :    VFR   VFR Marginal   IFR   IFR Intensif   IFR Très Intensif
Visi : 
Plafond : 
>= 8 km
>= 3000ft
5 à 8 km
1000 à 3000 ft
1500m à 5 km
500 à 1000 ft
800 à 1500m
200 à 500 ft
< 800m
< 200 ft
Symboles :   Orages  Brouillard  Fortes neiges  Fortes précipitations  Vent > 20 kt
SIGMETs :   Divers  Orages  Givrage  Turbulence  Onde Orograph.  Cendres Volcan.






- Altitude de l'aérodrome : 364 ft
- Code IATA : FRA


EDDF - Frankfurt Int.

DERNIER METAR :
  • 232250Z 16004KT 140V210 CAVOK 14/11 Q1004 NOSIG

METARs EXPIRÉS :
  • 232220Z 19003KT 160V220 CAVOK 15/11 Q1005 NOSIG
  • 232150Z 21002KT CAVOK 16/11 Q1005 NOSIG
  • 232120Z VRB01KT CAVOK 16/11 Q1005 NOSIG
  • 232050Z 17003KT 150V220 CAVOK 16/11 Q1005 NOSIG
  • 232020Z 15004KT CAVOK 17/11 Q1005 NOSIG

TAF TAF EDDF
Valide du 23 à 18h jusqu'au 25 à 00h UTC


231700Z 2318/2424 20005KT CAVOK
TEMPO 2400/2406 27015G30KT SHRA BKN025CB
BECMG 2402/2406 24012KT
TEMPO 2406/2410 25015G25KT BKN030
BECMG 2410/2412 19015G25KT
BECMG 2417/2419 18006KT
TEMPO 2419/2424 23015G25KT SHRA BKN020CB
PROB30
TEMPO 2419/2424 3000 TSRA BKN014CB



MET'MAP, la Météo Aéronautique d'un coup d'oeil ! - Copyright ORBIFLY Décembre 2007 - Disclaimer

ORBIFLY MET'MAP TEAM :

Programmation & Développement : Alexandra Zaïnal
Sur une idée originale de : Baudouin d'Aumeries
Assistance à la programmation : Marc-Olivier Méhu
Soutien technique & logistique : Manuel Goepfert

Contact : metmap@orbifly.com




SOURCES & CREDITS :

   NOAA